sensor_id;sensor_type;location;lat;lon;timestamp;temperature;humidity
47090;DHT22;32840;52.516;13.294;2024-02-26T00:01:07;6.90;99.90
47090;DHT22;32840;52.516;13.294;2024-02-26T00:03:52;6.80;99.90
47090;DHT22;32840;52.516;13.294;2024-02-26T00:06:38;6.80;99.90
47090;DHT22;32840;52.516;13.294;2024-02-26T00:09:26;6.70;99.90
47090;DHT22;32840;52.516;13.294;2024-02-26T00:12:10;6.70;99.90
47090;DHT22;32840;52.516;13.294;2024-02-26T00:14:56;6.60;99.90
47090;DHT22;32840;52.516;13.294;2024-02-26T00:17:42;6.60;99.90
47090;DHT22;32840;52.516;13.294;2024-02-26T00:20:27;6.60;99.90
47090;DHT22;32840;52.516;13.294;2024-02-26T00:23:16;6.50;99.90
47090;DHT22;32840;52.516;13.294;2024-02-26T00:26:01;6.50;99.90
47090;DHT22;32840;52.516;13.294;2024-02-26T00:28:46;6.40;99.90
47090;DHT22;32840;52.516;13.294;2024-02-26T00:31:34;6.30;99.90
47090;DHT22;32840;52.516;13.294;2024-02-26T00:34:21;6.30;99.90
47090;DHT22;32840;52.516;13.294;2024-02-26T00:37:07;6.40;99.90
47090;DHT22;32840;52.516;13.294;2024-02-26T00:39:52;6.30;99.90
47090;DHT22;32840;52.516;13.294;2024-02-26T00:42:39;6.30;99.90
47090;DHT22;32840;52.516;13.294;2024-02-26T00:45:30;6.20;99.90
47090;DHT22;32840;52.516;13.294;2024-02-26T00:48:16;6.20;99.90
47090;DHT22;32840;52.516;13.294;2024-02-26T00:51:06;6.20;99.90
47090;DHT22;32840;52.516;13.294;2024-02-26T00:53:52;6.20;99.90
47090;DHT22;32840;52.516;13.294;2024-02-26T00:56:37;6.10;99.90
47090;DHT22;32840;52.516;13.294;2024-02-26T00:59:22;6.10;99.90
47090;DHT22;32840;52.516;13.294;2024-02-26T01:02:09;6.10;99.90
47090;DHT22;32840;52.516;13.294;2024-02-26T01:04:54;6.10;99.90
47090;DHT22;32840;52.516;13.294;2024-02-26T01:07:39;6.10;99.90
47090;DHT22;32840;52.516;13.294;2024-02-26T01:10:27;6.10;99.90
47090;DHT22;32840;52.516;13.294;2024-02-26T01:13:12;6.00;99.90
47090;DHT22;32840;52.516;13.294;2024-02-26T01:15:57;6.10;99.90
47090;DHT22;32840;52.516;13.294;2024-02-26T01:18:43;6.00;99.90
47090;DHT22;32840;52.516;13.294;2024-02-26T01:21:28;6.00;99.90
47090;DHT22;32840;52.516;13.294;2024-02-26T01:24:14;5.90;99.90
47090;DHT22;32840;52.516;13.294;2024-02-26T01:27:00;5.90;99.90
47090;DHT22;32840;52.516;13.294;2024-02-26T01:29:45;5.90;99.90
47090;DHT22;32840;52.516;13.294;2024-02-26T01:32:30;5.80;99.90
47090;DHT22;32840;52.516;13.294;2024-02-26T01:35:15;5.80;99.90
47090;DHT22;32840;52.516;13.294;2024-02-26T01:38:00;5.80;99.90
47090;DHT22;32840;52.516;13.294;2024-02-26T01:40:45;5.80;99.90
47090;DHT22;32840;52.516;13.294;2024-02-26T01:43:30;5.80;99.90
47090;DHT22;32840;52.516;13.294;2024-02-26T01:46:16;5.70;99.90
47090;DHT22;32840;52.516;13.294;2024-02-26T01:49:02;5.70;99.90
47090;DHT22;32840;52.516;13.294;2024-02-26T01:51:49;5.70;99.90
47090;DHT22;32840;52.516;13.294;2024-02-26T01:54:35;5.60;99.90
47090;DHT22;32840;52.516;13.294;2024-02-26T01:57:24;5.60;99.90
47090;DHT22;32840;52.516;13.294;2024-02-26T02:00:09;5.60;99.90
47090;DHT22;32840;52.516;13.294;2024-02-26T02:02:54;5.50;99.90
47090;DHT22;32840;52.516;13.294;2024-02-26T02:05:39;5.50;99.90
47090;DHT22;32840;52.516;13.294;2024-02-26T02:08:28;5.60;99.90
47090;DHT22;32840;52.516;13.294;2024-02-26T02:11:15;5.60;99.90
47090;DHT22;32840;52.516;13.294;2024-02-26T02:14:01;5.50;99.90
47090;DHT22;32840;52.516;13.294;2024-02-26T02:16:47;5.50;99.90
47090;DHT22;32840;52.516;13.294;2024-02-26T02:19:31;5.50;99.90
47090;DHT22;32840;52.516;13.294;2024-02-26T02:22:16;5.50;99.90
47090;DHT22;32840;52.516;13.294;2024-02-26T02:25:01;5.50;99.90
47090;DHT22;32840;52.516;13.294;2024-02-26T02:27:47;5.50;99.90
47090;DHT22;32840;52.516;13.294;2024-02-26T02:30:32;5.50;99.90
47090;DHT22;32840;52.516;13.294;2024-02-26T02:33:21;5.40;99.90
47090;DHT22;32840;52.516;13.294;2024-02-26T02:36:07;5.40;99.90
47090;DHT22;32840;52.516;13.294;2024-02-26T02:38:54;5.40;99.90
47090;DHT22;32840;52.516;13.294;2024-02-26T02:41:39;5.40;99.90
47090;DHT22;32840;52.516;13.294;2024-02-26T02:44:24;5.40;99.90
47090;DHT22;32840;52.516;13.294;2024-02-26T02:47:10;5.40;99.90
47090;DHT22;32840;52.516;13.294;2024-02-26T02:49:55;5.30;99.90
47090;DHT22;32840;52.516;13.294;2024-02-26T02:52:40;5.30;99.90
47090;DHT22;32840;52.516;13.294;2024-02-26T02:55:25;5.30;99.90
47090;DHT22;32840;52.516;13.294;2024-02-26T02:58:10;5.30;99.90
47090;DHT22;32840;52.516;13.294;2024-02-26T03:00:55;5.20;99.90
47090;DHT22;32840;52.516;13.294;2024-02-26T03:03:42;5.20;99.90
47090;DHT22;32840;52.516;13.294;2024-02-26T03:06:27;5.20;99.90
47090;DHT22;32840;52.516;13.294;2024-02-26T03:09:14;5.20;99.90
47090;DHT22;32840;52.516;13.294;2024-02-26T03:12:00;5.20;99.90
47090;DHT22;32840;52.516;13.294;2024-02-26T03:14:48;5.20;99.90
47090;DHT22;32840;52.516;13.294;2024-02-26T03:17:34;5.20;99.90
47090;DHT22;32840;52.516;13.294;2024-02-26T03:20:19;5.20;99.90
47090;DHT22;32840;52.516;13.294;2024-02-26T03:23:04;5.30;99.90
47090;DHT22;32840;52.516;13.294;2024-02-26T03:25:51;5.30;99.90
47090;DHT22;32840;52.516;13.294;2024-02-26T03:28:36;5.20;99.90
47090;DHT22;32840;52.516;13.294;2024-02-26T03:31:20;5.30;99.90
47090;DHT22;32840;52.516;13.294;2024-02-26T03:34:06;5.20;99.90
47090;DHT22;32840;52.516;13.294;2024-02-26T03:36:52;5.20;99.90
47090;DHT22;32840;52.516;13.294;2024-02-26T03:39:37;5.20;99.90
47090;DHT22;32840;52.516;13.294;2024-02-26T03:42:22;5.30;99.90
47090;DHT22;32840;52.516;13.294;2024-02-26T03:45:07;5.30;99.90
47090;DHT22;32840;52.516;13.294;2024-02-26T03:47:51;5.30;99.90
47090;DHT22;32840;52.516;13.294;2024-02-26T03:50:36;5.40;99.90
47090;DHT22;32840;52.516;13.294;2024-02-26T03:53:23;5.40;99.90
47090;DHT22;32840;52.516;13.294;2024-02-26T03:56:12;5.40;99.90
47090;DHT22;32840;52.516;13.294;2024-02-26T03:58:58;5.40;99.90
47090;DHT22;32840;52.516;13.294;2024-02-26T04:01:47;5.60;99.90
47090;DHT22;32840;52.516;13.294;2024-02-26T04:04:35;5.50;99.90
47090;DHT22;32840;52.516;13.294;2024-02-26T04:07:20;5.50;99.90
47090;DHT22;32840;52.516;13.294;2024-02-26T04:10:12;5.50;99.90
47090;DHT22;32840;52.516;13.294;2024-02-26T04:12:57;5.50;99.90
47090;DHT22;32840;52.516;13.294;2024-02-26T04:15:43;5.40;99.90
47090;DHT22;32840;52.516;13.294;2024-02-26T04:18:28;5.40;99.90
47090;DHT22;32840;52.516;13.294;2024-02-26T04:21:13;5.30;99.90
47090;DHT22;32840;52.516;13.294;2024-02-26T04:23:58;5.30;99.90
47090;DHT22;32840;52.516;13.294;2024-02-26T04:26:46;5.30;99.90
47090;DHT22;32840;52.516;13.294;2024-02-26T04:29:31;5.20;99.90
47090;DHT22;32840;52.516;13.294;2024-02-26T04:32:15;5.20;99.90
47090;DHT22;32840;52.516;13.294;2024-02-26T04:35:02;5.20;99.90
47090;DHT22;32840;52.516;13.294;2024-02-26T04:37:47;5.20;99.90
47090;DHT22;32840;52.516;13.294;2024-02-26T04:40:32;5.20;99.90
47090;DHT22;32840;52.516;13.294;2024-02-26T04:43:16;5.20;99.90
47090;DHT22;32840;52.516;13.294;2024-02-26T04:46:03;5.10;99.90
47090;DHT22;32840;52.516;13.294;2024-02-26T04:48:49;5.10;99.90
47090;DHT22;32840;52.516;13.294;2024-02-26T04:51:34;5.10;99.90
47090;DHT22;32840;52.516;13.294;2024-02-26T04:54:20;5.10;99.90
47090;DHT22;32840;52.516;13.294;2024-02-26T04:57:05;5.10;99.90
47090;DHT22;32840;52.516;13.294;2024-02-26T04:59:50;5.10;99.90
47090;DHT22;32840;52.516;13.294;2024-02-26T05:02:34;5.10;99.90
47090;DHT22;32840;52.516;13.294;2024-02-26T05:05:25;5.10;99.90
47090;DHT22;32840;52.516;13.294;2024-02-26T05:08:10;5.00;99.90
47090;DHT22;32840;52.516;13.294;2024-02-26T05:10:56;4.90;99.90
47090;DHT22;32840;52.516;13.294;2024-02-26T05:13:45;4.90;99.90
47090;DHT22;32840;52.516;13.294;2024-02-26T05:16:31;4.80;99.90
47090;DHT22;32840;52.516;13.294;2024-02-26T05:19:19;4.70;99.90
47090;DHT22;32840;52.516;13.294;2024-02-26T05:22:03;4.70;99.90
47090;DHT22;32840;52.516;13.294;2024-02-26T05:24:48;4.70;99.90
47090;DHT22;32840;52.516;13.294;2024-02-26T05:27:35;4.70;99.90
47090;DHT22;32840;52.516;13.294;2024-02-26T05:30:20;4.70;99.90
47090;DHT22;32840;52.516;13.294;2024-02-26T05:33:10;4.60;99.90
47090;DHT22;32840;52.516;13.294;2024-02-26T05:35:54;4.60;99.90
47090;DHT22;32840;52.516;13.294;2024-02-26T05:38:39;4.60;99.90
47090;DHT22;32840;52.516;13.294;2024-02-26T05:41:24;4.60;99.90
47090;DHT22;32840;52.516;13.294;2024-02-26T05:44:12;4.60;99.90
47090;DHT22;32840;52.516;13.294;2024-02-26T05:46:57;4.60;99.90
47090;DHT22;32840;52.516;13.294;2024-02-26T05:49:43;4.50;99.90
47090;DHT22;32840;52.516;13.294;2024-02-26T05:52:31;4.50;99.90
47090;DHT22;32840;52.516;13.294;2024-02-26T05:55:17;4.50;99.90
47090;DHT22;32840;52.516;13.294;2024-02-26T05:58:01;4.50;99.90
47090;DHT22;32840;52.516;13.294;2024-02-26T06:00:46;4.50;99.90
47090;DHT22;32840;52.516;13.294;2024-02-26T06:03:36;4.50;99.90
47090;DHT22;32840;52.516;13.294;2024-02-26T06:06:22;4.50;99.90
47090;DHT22;32840;52.516;13.294;2024-02-26T06:09:08;4.50;99.90
47090;DHT22;32840;52.516;13.294;2024-02-26T06:11:54;4.50;99.90
47090;DHT22;32840;52.516;13.294;2024-02-26T06:14:39;4.50;99.90
47090;DHT22;32840;52.516;13.294;2024-02-26T06:17:24;4.50;99.90
47090;DHT22;32840;52.516;13.294;2024-02-26T06:20:13;4.50;99.90
47090;DHT22;32840;52.516;13.294;2024-02-26T06:23:02;4.50;99.90
47090;DHT22;32840;52.516;13.294;2024-02-26T06:25:47;4.50;99.90
47090;DHT22;32840;52.516;13.294;2024-02-26T06:28:33;4.50;99.90
47090;DHT22;32840;52.516;13.294;2024-02-26T06:31:25;4.60;99.90
47090;DHT22;32840;52.516;13.294;2024-02-26T06:34:12;4.60;99.90
47090;DHT22;32840;52.516;13.294;2024-02-26T06:37:02;4.70;99.90
47090;DHT22;32840;52.516;13.294;2024-02-26T06:39:50;4.70;99.90
47090;DHT22;32840;52.516;13.294;2024-02-26T06:42:37;4.80;99.90
47090;DHT22;32840;52.516;13.294;2024-02-26T06:45:22;4.80;99.90
47090;DHT22;32840;52.516;13.294;2024-02-26T06:48:08;4.90;99.90
47090;DHT22;32840;52.516;13.294;2024-02-26T06:50:55;4.80;99.90
47090;DHT22;32840;52.516;13.294;2024-02-26T06:53:42;4.90;99.90
47090;DHT22;32840;52.516;13.294;2024-02-26T06:56:29;4.90;99.90
47090;DHT22;32840;52.516;13.294;2024-02-26T06:59:35;5.00;99.90
47090;DHT22;32840;52.516;13.294;2024-02-26T07:02:22;5.00;99.90
47090;DHT22;32840;52.516;13.294;2024-02-26T07:05:16;5.10;99.90
47090;DHT22;32840;52.516;13.294;2024-02-26T07:08:52;5.20;99.90
47090;DHT22;32840;52.516;13.294;2024-02-26T07:11:48;5.20;99.90
47090;DHT22;32840;52.516;13.294;2024-02-26T07:14:34;5.20;99.90
47090;DHT22;32840;52.516;13.294;2024-02-26T07:17:34;5.30;99.90
47090;DHT22;32840;52.516;13.294;2024-02-26T07:20:31;5.40;99.90
47090;DHT22;32840;52.516;13.294;2024-02-26T07:23:47;5.40;99.90
47090;DHT22;32840;52.516;13.294;2024-02-26T07:26:36;5.60;99.90
47090;DHT22;32840;52.516;13.294;2024-02-26T07:29:27;5.70;99.90
47090;DHT22;32840;52.516;13.294;2024-02-26T07:32:18;5.80;99.90
47090;DHT22;32840;52.516;13.294;2024-02-26T07:35:09;5.90;99.90
47090;DHT22;32840;52.516;13.294;2024-02-26T07:38:33;6.00;99.90
47090;DHT22;32840;52.516;13.294;2024-02-26T07:42:05;6.20;99.90
47090;DHT22;32840;52.516;13.294;2024-02-26T07:44:52;6.30;99.90
47090;DHT22;32840;52.516;13.294;2024-02-26T07:47:41;6.40;99.90
47090;DHT22;32840;52.516;13.294;2024-02-26T07:50:33;6.50;99.90
47090;DHT22;32840;52.516;13.294;2024-02-26T07:53:31;6.60;99.90
47090;DHT22;32840;52.516;13.294;2024-02-26T07:56:28;6.70;99.90
47090;DHT22;32840;52.516;13.294;2024-02-26T07:59:14;6.70;99.90
47090;DHT22;32840;52.516;13.294;2024-02-26T08:02:05;6.80;99.90
47090;DHT22;32840;52.516;13.294;2024-02-26T08:04:50;6.90;99.90
47090;DHT22;32840;52.516;13.294;2024-02-26T08:07:35;7.00;99.90
47090;DHT22;32840;52.516;13.294;2024-02-26T08:10:27;7.10;99.90
47090;DHT22;32840;52.516;13.294;2024-02-26T08:13:13;7.20;99.90
47090;DHT22;32840;52.516;13.294;2024-02-26T08:16:08;7.30;99.90
47090;DHT22;32840;52.516;13.294;2024-02-26T08:19:04;7.40;99.90
47090;DHT22;32840;52.516;13.294;2024-02-26T08:21:51;7.40;99.90
47090;DHT22;32840;52.516;13.294;2024-02-26T08:24:45;7.40;99.90
47090;DHT22;32840;52.516;13.294;2024-02-26T08:27:35;7.50;99.90
47090;DHT22;32840;52.516;13.294;2024-02-26T08:30:22;7.40;99.90
47090;DHT22;32840;52.516;13.294;2024-02-26T08:33:13;7.50;99.90
47090;DHT22;32840;52.516;13.294;2024-02-26T08:36:20;7.60;99.90
47090;DHT22;32840;52.516;13.294;2024-02-26T08:39:09;7.70;99.90
47090;DHT22;32840;52.516;13.294;2024-02-26T08:42:01;7.80;99.90
47090;DHT22;32840;52.516;13.294;2024-02-26T08:44:51;7.90;99.90
47090;DHT22;32840;52.516;13.294;2024-02-26T08:47:39;8.10;99.90
47090;DHT22;32840;52.516;13.294;2024-02-26T08:50:26;8.20;99.90
47090;DHT22;32840;52.516;13.294;2024-02-26T08:53:14;8.20;99.90
47090;DHT22;32840;52.516;13.294;2024-02-26T08:56:05;8.30;99.90
47090;DHT22;32840;52.516;13.294;2024-02-26T08:58:56;8.50;99.90
47090;DHT22;32840;52.516;13.294;2024-02-26T09:01:43;8.70;99.90
47090;DHT22;32840;52.516;13.294;2024-02-26T09:04:31;8.90;99.90
47090;DHT22;32840;52.516;13.294;2024-02-26T09:07:19;9.00;99.90
47090;DHT22;32840;52.516;13.294;2024-02-26T09:10:06;9.00;99.90
47090;DHT22;32840;52.516;13.294;2024-02-26T09:12:53;9.10;99.90
47090;DHT22;32840;52.516;13.294;2024-02-26T09:15:40;9.20;99.90
47090;DHT22;32840;52.516;13.294;2024-02-26T09:18:28;9.30;99.90
47090;DHT22;32840;52.516;13.294;2024-02-26T09:21:13;9.30;99.90
47090;DHT22;32840;52.516;13.294;2024-02-26T09:23:59;9.40;99.90
47090;DHT22;32840;52.516;13.294;2024-02-26T09:26:44;9.40;99.90
47090;DHT22;32840;52.516;13.294;2024-02-26T09:29:30;9.40;99.90
47090;DHT22;32840;52.516;13.294;2024-02-26T09:32:15;9.40;99.90
47090;DHT22;32840;52.516;13.294;2024-02-26T09:35:01;9.40;99.90
47090;DHT22;32840;52.516;13.294;2024-02-26T09:37:54;9.40;99.90
47090;DHT22;32840;52.516;13.294;2024-02-26T09:40:42;9.40;99.90
47090;DHT22;32840;52.516;13.294;2024-02-26T09:43:27;9.30;99.90
47090;DHT22;32840;52.516;13.294;2024-02-26T09:46:17;9.40;99.90
47090;DHT22;32840;52.516;13.294;2024-02-26T09:49:05;9.40;99.90
47090;DHT22;32840;52.516;13.294;2024-02-26T09:51:52;9.40;99.90
47090;DHT22;32840;52.516;13.294;2024-02-26T09:54:40;9.50;99.90
47090;DHT22;32840;52.516;13.294;2024-02-26T09:57:27;9.50;99.90
47090;DHT22;32840;52.516;13.294;2024-02-26T10:00:21;9.60;99.90
47090;DHT22;32840;52.516;13.294;2024-02-26T10:03:09;9.60;99.90
47090;DHT22;32840;52.516;13.294;2024-02-26T10:06:00;9.70;99.90
47090;DHT22;32840;52.516;13.294;2024-02-26T10:08:47;9.80;99.90
47090;DHT22;32840;52.516;13.294;2024-02-26T10:11:33;9.80;99.90
47090;DHT22;32840;52.516;13.294;2024-02-26T10:14:18;9.90;99.90
47090;DHT22;32840;52.516;13.294;2024-02-26T10:17:07;9.90;99.90
47090;DHT22;32840;52.516;13.294;2024-02-26T10:19:54;10.00;99.90
47090;DHT22;32840;52.516;13.294;2024-02-26T10:22:41;10.10;99.90
47090;DHT22;32840;52.516;13.294;2024-02-26T10:25:28;10.10;99.90
47090;DHT22;32840;52.516;13.294;2024-02-26T10:28:12;10.20;99.90
47090;DHT22;32840;52.516;13.294;2024-02-26T10:30:59;10.30;99.90
47090;DHT22;32840;52.516;13.294;2024-02-26T10:33:45;10.40;99.90
47090;DHT22;32840;52.516;13.294;2024-02-26T10:36:33;10.40;99.90
47090;DHT22;32840;52.516;13.294;2024-02-26T10:39:20;10.50;99.90
47090;DHT22;32840;52.516;13.294;2024-02-26T10:42:12;10.50;99.90
47090;DHT22;32840;52.516;13.294;2024-02-26T10:44:58;10.50;99.90
47090;DHT22;32840;52.516;13.294;2024-02-26T10:47:43;10.60;99.90
47090;DHT22;32840;52.516;13.294;2024-02-26T10:50:28;10.60;99.90
47090;DHT22;32840;52.516;13.294;2024-02-26T10:53:17;10.60;99.90
47090;DHT22;32840;52.516;13.294;2024-02-26T10:56:07;10.60;99.90
47090;DHT22;32840;52.516;13.294;2024-02-26T10:58:58;10.70;99.90
47090;DHT22;32840;52.516;13.294;2024-02-26T11:01:54;10.70;99.90
47090;DHT22;32840;52.516;13.294;2024-02-26T11:04:45;10.70;99.90
47090;DHT22;32840;52.516;13.294;2024-02-26T11:07:34;10.70;99.90
47090;DHT22;32840;52.516;13.294;2024-02-26T11:10:21;10.80;99.90
47090;DHT22;32840;52.516;13.294;2024-02-26T11:13:11;10.80;99.90
47090;DHT22;32840;52.516;13.294;2024-02-26T11:15:56;10.90;99.90
47090;DHT22;32840;52.516;13.294;2024-02-26T11:18:46;10.90;99.90
47090;DHT22;32840;52.516;13.294;2024-02-26T11:21:32;11.00;99.90
47090;DHT22;32840;52.516;13.294;2024-02-26T11:24:29;11.10;99.90
47090;DHT22;32840;52.516;13.294;2024-02-26T11:27:17;11.10;99.90
47090;DHT22;32840;52.516;13.294;2024-02-26T11:30:05;11.20;99.90
47090;DHT22;32840;52.516;13.294;2024-02-26T11:32:54;11.20;99.90
47090;DHT22;32840;52.516;13.294;2024-02-26T11:35:40;11.20;99.90
47090;DHT22;32840;52.516;13.294;2024-02-26T11:38:26;11.20;99.90
47090;DHT22;32840;52.516;13.294;2024-02-26T11:41:11;11.20;99.90
47090;DHT22;32840;52.516;13.294;2024-02-26T11:44:01;11.30;99.90
47090;DHT22;32840;52.516;13.294;2024-02-26T11:46:48;11.30;99.90
47090;DHT22;32840;52.516;13.294;2024-02-26T11:49:33;11.40;99.90
47090;DHT22;32840;52.516;13.294;2024-02-26T11:52:20;11.40;99.90
47090;DHT22;32840;52.516;13.294;2024-02-26T11:55:07;11.50;99.90
47090;DHT22;32840;52.516;13.294;2024-02-26T11:58:05;11.50;99.90
47090;DHT22;32840;52.516;13.294;2024-02-26T12:00:50;11.50;99.90
47090;DHT22;32840;52.516;13.294;2024-02-26T12:03:39;11.50;99.90
47090;DHT22;32840;52.516;13.294;2024-02-26T12:06:28;11.60;99.90
47090;DHT22;32840;52.516;13.294;2024-02-26T12:09:13;11.60;99.90
47090;DHT22;32840;52.516;13.294;2024-02-26T12:12:03;11.70;99.90
47090;DHT22;32840;52.516;13.294;2024-02-26T12:15:00;11.60;99.90
47090;DHT22;32840;52.516;13.294;2024-02-26T12:17:48;11.60;99.90
47090;DHT22;32840;52.516;13.294;2024-02-26T12:20:36;11.60;99.90
47090;DHT22;32840;52.516;13.294;2024-02-26T12:23:23;11.70;99.90
47090;DHT22;32840;52.516;13.294;2024-02-26T12:26:08;11.60;99.90
47090;DHT22;32840;52.516;13.294;2024-02-26T12:28:55;11.60;99.90
47090;DHT22;32840;52.516;13.294;2024-02-26T12:31:40;11.70;99.90
47090;DHT22;32840;52.516;13.294;2024-02-26T12:34:37;11.80;99.90
47090;DHT22;32840;52.516;13.294;2024-02-26T12:37:23;11.90;99.90
47090;DHT22;32840;52.516;13.294;2024-02-26T12:40:11;12.00;99.60
47090;DHT22;32840;52.516;13.294;2024-02-26T12:43:07;12.10;98.90
47090;DHT22;32840;52.516;13.294;2024-02-26T12:45:58;12.10;98.20
47090;DHT22;32840;52.516;13.294;2024-02-26T12:48:44;12.00;98.40
47090;DHT22;32840;52.516;13.294;2024-02-26T12:51:35;12.00;97.90
47090;DHT22;32840;52.516;13.294;2024-02-26T12:54:23;12.10;97.80
47090;DHT22;32840;52.516;13.294;2024-02-26T12:57:14;12.10;97.10
47090;DHT22;32840;52.516;13.294;2024-02-26T13:00:08;12.10;97.00
47090;DHT22;32840;52.516;13.294;2024-02-26T13:03:07;12.10;95.80
47090;DHT22;32840;52.516;13.294;2024-02-26T13:06:26;12.10;95.10
47090;DHT22;32840;52.516;13.294;2024-02-26T13:09:39;12.10;94.40
47090;DHT22;32840;52.516;13.294;2024-02-26T13:13:01;12.20;94.20
47090;DHT22;32840;52.516;13.294;2024-02-26T13:15:47;12.20;93.30
47090;DHT22;32840;52.516;13.294;2024-02-26T13:18:34;12.10;91.30
47090;DHT22;32840;52.516;13.294;2024-02-26T13:21:37;12.10;91.20
47090;DHT22;32840;52.516;13.294;2024-02-26T13:24:22;12.20;90.70
47090;DHT22;32840;52.516;13.294;2024-02-26T13:27:11;12.10;90.00
47090;DHT22;32840;52.516;13.294;2024-02-26T13:30:12;12.20;89.60
47090;DHT22;32840;52.516;13.294;2024-02-26T13:33:10;12.20;88.60
47090;DHT22;32840;52.516;13.294;2024-02-26T13:35:58;12.20;88.50
47090;DHT22;32840;52.516;13.294;2024-02-26T13:38:51;12.20;87.40
47090;DHT22;32840;52.516;13.294;2024-02-26T13:41:37;12.20;87.40
47090;DHT22;32840;52.516;13.294;2024-02-26T13:44:22;12.20;84.80
47090;DHT22;32840;52.516;13.294;2024-02-26T13:47:07;12.20;83.20
47090;DHT22;32840;52.516;13.294;2024-02-26T13:49:54;12.20;81.40
47090;DHT22;32840;52.516;13.294;2024-02-26T13:52:41;12.10;81.10
47090;DHT22;32840;52.516;13.294;2024-02-26T13:55:26;12.10;80.10
47090;DHT22;32840;52.516;13.294;2024-02-26T13:58:13;12.10;80.30
47090;DHT22;32840;52.516;13.294;2024-02-26T14:00:59;12.10;79.00
47090;DHT22;32840;52.516;13.294;2024-02-26T14:03:48;12.10;80.00
47090;DHT22;32840;52.516;13.294;2024-02-26T14:06:33;12.20;80.50
47090;DHT22;32840;52.516;13.294;2024-02-26T14:09:28;12.20;79.40
47090;DHT22;32840;52.516;13.294;2024-02-26T14:12:14;12.20;79.90
47090;DHT22;32840;52.516;13.294;2024-02-26T14:15:01;12.20;78.90
47090;DHT22;32840;52.516;13.294;2024-02-26T14:17:49;12.20;78.90
47090;DHT22;32840;52.516;13.294;2024-02-26T14:20:40;12.20;78.90
47090;DHT22;32840;52.516;13.294;2024-02-26T14:23:28;12.20;79.30
47090;DHT22;32840;52.516;13.294;2024-02-26T14:26:18;12.20;79.00
47090;DHT22;32840;52.516;13.294;2024-02-26T14:29:02;12.10;79.60
47090;DHT22;32840;52.516;13.294;2024-02-26T14:31:50;12.10;79.90
47090;DHT22;32840;52.516;13.294;2024-02-26T14:34:34;12.10;80.60
47090;DHT22;32840;52.516;13.294;2024-02-26T14:37:20;12.20;81.30
47090;DHT22;32840;52.516;13.294;2024-02-26T14:40:06;12.10;81.50
47090;DHT22;32840;52.516;13.294;2024-02-26T14:42:57;12.00;82.00
47090;DHT22;32840;52.516;13.294;2024-02-26T14:45:44;12.10;82.90
47090;DHT22;32840;52.516;13.294;2024-02-26T14:48:31;12.00;82.90
47090;DHT22;32840;52.516;13.294;2024-02-26T14:51:19;12.10;83.60
47090;DHT22;32840;52.516;13.294;2024-02-26T14:54:04;12.00;83.80
47090;DHT22;32840;52.516;13.294;2024-02-26T14:56:56;11.90;84.30
47090;DHT22;32840;52.516;13.294;2024-02-26T14:59:45;11.90;85.10
47090;DHT22;32840;52.516;13.294;2024-02-26T15:02:35;11.90;85.60
47090;DHT22;32840;52.516;13.294;2024-02-26T15:05:24;11.90;86.30
47090;DHT22;32840;52.516;13.294;2024-02-26T15:08:11;11.90;86.70
47090;DHT22;32840;52.516;13.294;2024-02-26T15:11:04;11.90;86.90
47090;DHT22;32840;52.516;13.294;2024-02-26T15:13:55;11.80;87.80
47090;DHT22;32840;52.516;13.294;2024-02-26T15:16:41;11.80;88.40
47090;DHT22;32840;52.516;13.294;2024-02-26T15:19:31;11.70;89.00
47090;DHT22;32840;52.516;13.294;2024-02-26T15:22:24;11.70;90.00
47090;DHT22;32840;52.516;13.294;2024-02-26T15:25:11;11.70;90.10
47090;DHT22;32840;52.516;13.294;2024-02-26T15:27:58;11.70;90.40
47090;DHT22;32840;52.516;13.294;2024-02-26T15:30:46;11.60;90.60
47090;DHT22;32840;52.516;13.294;2024-02-26T15:34:07;11.60;90.90
47090;DHT22;32840;52.516;13.294;2024-02-26T15:37:18;11.60;91.20
47090;DHT22;32840;52.516;13.294;2024-02-26T15:40:07;11.60;91.40
47090;DHT22;32840;52.516;13.294;2024-02-26T15:42:57;11.60;91.70
47090;DHT22;32840;52.516;13.294;2024-02-26T15:45:54;11.60;92.00
47090;DHT22;32840;52.516;13.294;2024-02-26T15:48:58;11.60;92.40
47090;DHT22;32840;52.516;13.294;2024-02-26T15:51:42;11.60;92.80
47090;DHT22;32840;52.516;13.294;2024-02-26T15:54:37;11.50;93.00
47090;DHT22;32840;52.516;13.294;2024-02-26T15:57:23;11.50;93.30
47090;DHT22;32840;52.516;13.294;2024-02-26T16:00:15;11.50;93.40
47090;DHT22;32840;52.516;13.294;2024-02-26T16:03:03;11.40;93.50
47090;DHT22;32840;52.516;13.294;2024-02-26T16:06:02;11.40;93.70
47090;DHT22;32840;52.516;13.294;2024-02-26T16:09:01;11.30;93.90
47090;DHT22;32840;52.516;13.294;2024-02-26T16:12:17;11.30;94.10
47090;DHT22;32840;52.516;13.294;2024-02-26T16:15:30;11.30;94.60
47090;DHT22;32840;52.516;13.294;2024-02-26T16:18:54;11.30;94.90
47090;DHT22;32840;52.516;13.294;2024-02-26T16:22:07;11.20;95.30
47090;DHT22;32840;52.516;13.294;2024-02-26T16:24:53;11.20;95.60
47090;DHT22;32840;52.516;13.294;2024-02-26T16:27:47;11.20;95.90
47090;DHT22;32840;52.516;13.294;2024-02-26T16:30:36;11.10;96.30
47090;DHT22;32840;52.516;13.294;2024-02-26T16:33:24;11.10;96.80
47090;DHT22;32840;52.516;13.294;2024-02-26T16:36:39;11.10;96.90
47090;DHT22;32840;52.516;13.294;2024-02-26T16:39:39;11.10;97.10
47090;DHT22;32840;52.516;13.294;2024-02-26T16:42:24;11.10;97.60
47090;DHT22;32840;52.516;13.294;2024-02-26T16:45:32;11.10;97.90
47090;DHT22;32840;52.516;13.294;2024-02-26T16:48:20;11.00;98.30
47090;DHT22;32840;52.516;13.294;2024-02-26T16:51:38;11.00;98.60
47090;DHT22;32840;52.516;13.294;2024-02-26T16:54:37;11.10;99.10
47090;DHT22;32840;52.516;13.294;2024-02-26T16:57:23;11.00;99.70
47090;DHT22;32840;52.516;13.294;2024-02-26T17:00:16;11.00;99.90
47090;DHT22;32840;52.516;13.294;2024-02-26T17:03:04;11.00;99.90
47090;DHT22;32840;52.516;13.294;2024-02-26T17:06:06;10.90;99.90
47090;DHT22;32840;52.516;13.294;2024-02-26T17:08:56;10.90;99.90
47090;DHT22;32840;52.516;13.294;2024-02-26T17:12:29;10.90;99.90
47090;DHT22;32840;52.516;13.294;2024-02-26T17:15:18;10.80;99.90
47090;DHT22;32840;52.516;13.294;2024-02-26T17:18:05;10.80;99.90
47090;DHT22;32840;52.516;13.294;2024-02-26T17:21:04;10.70;99.90
47090;DHT22;32840;52.516;13.294;2024-02-26T17:24:09;10.70;99.90
47090;DHT22;32840;52.516;13.294;2024-02-26T17:26:58;10.70;99.90
47090;DHT22;32840;52.516;13.294;2024-02-26T17:29:44;10.60;99.90
47090;DHT22;32840;52.516;13.294;2024-02-26T17:32:42;10.60;99.90
47090;DHT22;32840;52.516;13.294;2024-02-26T17:35:51;10.60;99.90
47090;DHT22;32840;52.516;13.294;2024-02-26T17:38:37;10.60;99.90
47090;DHT22;32840;52.516;13.294;2024-02-26T17:41:36;10.60;99.90
47090;DHT22;32840;52.516;13.294;2024-02-26T17:44:33;10.60;99.90